sensor_id;sensor_type;location;lat;lon;timestamp;P1;durP1;ratioP1;P2;durP2;ratioP2
30707;SDS011;17458;48.958;8.284;2022-08-19T00:01:39;13.07;;;11.73;;
30707;SDS011;17458;48.958;8.284;2022-08-19T00:04:29;14.63;;;12.00;;
30707;SDS011;17458;48.958;8.284;2022-08-19T00:07:16;18.05;;;12.82;;
30707;SDS011;17458;48.958;8.284;2022-08-19T00:10:00;19.77;;;11.48;;
30707;SDS011;17458;48.958;8.284;2022-08-19T00:12:44;12.70;;;11.35;;
30707;SDS011;17458;48.958;8.284;2022-08-19T00:15:28;14.10;;;12.02;;
30707;SDS011;17458;48.958;8.284;2022-08-19T00:18:12;16.73;;;13.10;;
30707;SDS011;17458;48.958;8.284;2022-08-19T00:20:56;12.48;;;11.27;;
30707;SDS011;17458;48.958;8.284;2022-08-19T00:23:42;15.80;;;13.88;;
30707;SDS011;17458;48.958;8.284;2022-08-19T00:26:27;16.23;;;13.40;;
30707;SDS011;17458;48.958;8.284;2022-08-19T00:29:12;15.52;;;12.90;;
30707;SDS011;17458;48.958;8.284;2022-08-19T00:32:00;15.82;;;12.18;;
30707;SDS011;17458;48.958;8.284;2022-08-19T00:34:44;15.68;;;12.57;;
30707;SDS011;17458;48.958;8.284;2022-08-19T00:37:28;14.45;;;12.95;;
30707;SDS011;17458;48.958;8.284;2022-08-19T00:40:12;15.00;;;13.40;;
30707;SDS011;17458;48.958;8.284;2022-08-19T00:42:57;15.73;;;13.52;;
30707;SDS011;17458;48.958;8.284;2022-08-19T00:45:41;15.75;;;14.13;;
30707;SDS011;17458;48.958;8.284;2022-08-19T00:48:27;17.23;;;15.52;;
30707;SDS011;17458;48.958;8.284;2022-08-19T00:51:13;17.55;;;14.70;;
30707;SDS011;17458;48.958;8.284;2022-08-19T00:54:00;22.45;;;16.33;;
30707;SDS011;17458;48.958;8.284;2022-08-19T00:56:47;20.17;;;15.48;;
30707;SDS011;17458;48.958;8.284;2022-08-19T00:59:36;19.75;;;15.73;;
30707;SDS011;17458;48.958;8.284;2022-08-19T01:02:23;18.30;;;16.52;;
30707;SDS011;17458;48.958;8.284;2022-08-19T01:05:09;18.88;;;16.02;;
30707;SDS011;17458;48.958;8.284;2022-08-19T01:07:56;20.10;;;16.52;;
30707;SDS011;17458;48.958;8.284;2022-08-19T01:10:54;18.17;;;16.15;;
30707;SDS011;17458;48.958;8.284;2022-08-19T01:13:41;29.50;;;17.27;;
30707;SDS011;17458;48.958;8.284;2022-08-19T01:16:25;20.67;;;16.55;;
30707;SDS011;17458;48.958;8.284;2022-08-19T01:19:18;24.65;;;17.88;;
30707;SDS011;17458;48.958;8.284;2022-08-19T01:25:52;23.98;;;17.63;;
30707;SDS011;17458;48.958;8.284;2022-08-19T01:28:36;22.08;;;18.55;;
30707;SDS011;17458;48.958;8.284;2022-08-19T01:31:23;21.20;;;18.83;;
30707;SDS011;17458;48.958;8.284;2022-08-19T01:34:09;24.88;;;18.67;;
30707;SDS011;17458;48.958;8.284;2022-08-19T01:36:53;21.77;;;18.75;;
30707;SDS011;17458;48.958;8.284;2022-08-19T01:39:38;24.17;;;19.75;;
30707;SDS011;17458;48.958;8.284;2022-08-19T01:42:23;23.63;;;19.27;;
30707;SDS011;17458;48.958;8.284;2022-08-19T01:45:08;22.02;;;19.48;;
30707;SDS011;17458;48.958;8.284;2022-08-19T01:47:53;23.67;;;20.30;;
30707;SDS011;17458;48.958;8.284;2022-08-19T01:50:38;23.83;;;20.80;;
30707;SDS011;17458;48.958;8.284;2022-08-19T01:53:22;30.02;;;20.25;;
30707;SDS011;17458;48.958;8.284;2022-08-19T01:56:07;25.98;;;20.52;;
30707;SDS011;17458;48.958;8.284;2022-08-19T01:58:55;26.50;;;20.58;;
30707;SDS011;17458;48.958;8.284;2022-08-19T02:01:43;23.40;;;20.27;;
30707;SDS011;17458;48.958;8.284;2022-08-19T02:04:27;22.92;;;20.10;;
30707;SDS011;17458;48.958;8.284;2022-08-19T02:07:11;22.90;;;20.30;;
30707;SDS011;17458;48.958;8.284;2022-08-19T02:09:55;24.67;;;21.95;;
30707;SDS011;17458;48.958;8.284;2022-08-19T02:12:39;25.25;;;22.55;;
30707;SDS011;17458;48.958;8.284;2022-08-19T02:15:24;26.13;;;22.55;;
30707;SDS011;17458;48.958;8.284;2022-08-19T02:18:09;25.27;;;21.90;;
30707;SDS011;17458;48.958;8.284;2022-08-19T02:20:53;26.73;;;22.10;;
30707;SDS011;17458;48.958;8.284;2022-08-19T02:23:38;27.55;;;21.92;;
30707;SDS011;17458;48.958;8.284;2022-08-19T02:26:22;26.55;;;23.33;;
30707;SDS011;17458;48.958;8.284;2022-08-19T02:29:07;27.27;;;22.08;;
30707;SDS011;17458;48.958;8.284;2022-08-19T02:31:51;27.45;;;22.75;;
30707;SDS011;17458;48.958;8.284;2022-08-19T02:34:35;27.83;;;21.88;;
30707;SDS011;17458;48.958;8.284;2022-08-19T02:37:19;28.10;;;23.45;;
30707;SDS011;17458;48.958;8.284;2022-08-19T02:40:22;27.13;;;22.63;;
30707;SDS011;17458;48.958;8.284;2022-08-19T02:43:06;27.27;;;22.33;;
30707;SDS011;17458;48.958;8.284;2022-08-19T02:45:52;27.50;;;24.63;;
30707;SDS011;17458;48.958;8.284;2022-08-19T02:48:36;29.10;;;24.08;;
30707;SDS011;17458;48.958;8.284;2022-08-19T02:51:23;33.70;;;27.15;;
30707;SDS011;17458;48.958;8.284;2022-08-19T02:54:09;29.60;;;24.42;;
30707;SDS011;17458;48.958;8.284;2022-08-19T02:56:54;30.95;;;24.13;;
30707;SDS011;17458;48.958;8.284;2022-08-19T02:59:38;27.10;;;21.48;;
30707;SDS011;17458;48.958;8.284;2022-08-19T03:02:23;31.23;;;25.08;;
30707;SDS011;17458;48.958;8.284;2022-08-19T03:05:07;29.48;;;25.92;;
30707;SDS011;17458;48.958;8.284;2022-08-19T03:07:53;30.50;;;24.25;;
30707;SDS011;17458;48.958;8.284;2022-08-19T03:10:43;29.08;;;22.85;;
30707;SDS011;17458;48.958;8.284;2022-08-19T03:13:30;30.77;;;24.13;;
30707;SDS011;17458;48.958;8.284;2022-08-19T03:16:14;25.83;;;22.95;;
30707;SDS011;17458;48.958;8.284;2022-08-19T03:18:59;26.83;;;23.88;;
30707;SDS011;17458;48.958;8.284;2022-08-19T03:21:44;31.77;;;24.40;;
30707;SDS011;17458;48.958;8.284;2022-08-19T03:24:29;25.85;;;22.92;;
30707;SDS011;17458;48.958;8.284;2022-08-19T03:27:14;29.02;;;22.52;;
30707;SDS011;17458;48.958;8.284;2022-08-19T03:29:58;27.75;;;24.77;;
30707;SDS011;17458;48.958;8.284;2022-08-19T03:32:43;29.60;;;23.38;;
30707;SDS011;17458;48.958;8.284;2022-08-19T03:35:27;30.00;;;24.75;;
30707;SDS011;17458;48.958;8.284;2022-08-19T03:38:12;26.95;;;23.33;;
30707;SDS011;17458;48.958;8.284;2022-08-19T03:40:55;29.98;;;23.95;;
30707;SDS011;17458;48.958;8.284;2022-08-19T03:43:40;32.30;;;24.42;;
30707;SDS011;17458;48.958;8.284;2022-08-19T03:46:26;30.10;;;25.08;;
30707;SDS011;17458;48.958;8.284;2022-08-19T03:49:12;30.45;;;24.92;;
30707;SDS011;17458;48.958;8.284;2022-08-19T03:51:57;30.02;;;25.60;;
30707;SDS011;17458;48.958;8.284;2022-08-19T03:54:43;30.30;;;25.92;;
30707;SDS011;17458;48.958;8.284;2022-08-19T03:57:28;36.05;;;26.02;;
30707;SDS011;17458;48.958;8.284;2022-08-19T04:00:12;32.13;;;28.15;;
30707;SDS011;17458;48.958;8.284;2022-08-19T04:02:56;41.88;;;29.25;;
30707;SDS011;17458;48.958;8.284;2022-08-19T04:05:40;33.10;;;27.10;;
30707;SDS011;17458;48.958;8.284;2022-08-19T04:08:24;37.13;;;28.98;;
30707;SDS011;17458;48.958;8.284;2022-08-19T04:11:12;36.25;;;28.02;;
30707;SDS011;17458;48.958;8.284;2022-08-19T04:13:59;38.55;;;27.48;;
30707;SDS011;17458;48.958;8.284;2022-08-19T04:16:44;34.63;;;28.08;;
30707;SDS011;17458;48.958;8.284;2022-08-19T04:19:30;34.05;;;26.40;;
30707;SDS011;17458;48.958;8.284;2022-08-19T04:22:15;32.80;;;26.25;;
30707;SDS011;17458;48.958;8.284;2022-08-19T04:25:00;31.85;;;26.45;;
30707;SDS011;17458;48.958;8.284;2022-08-19T04:27:44;31.77;;;25.65;;
30707;SDS011;17458;48.958;8.284;2022-08-19T04:30:30;30.30;;;24.73;;
30707;SDS011;17458;48.958;8.284;2022-08-19T04:33:14;32.95;;;26.25;;
30707;SDS011;17458;48.958;8.284;2022-08-19T04:36:00;33.90;;;26.95;;
30707;SDS011;17458;48.958;8.284;2022-08-19T04:38:44;36.55;;;26.25;;
30707;SDS011;17458;48.958;8.284;2022-08-19T04:41:28;32.15;;;26.05;;
30707;SDS011;17458;48.958;8.284;2022-08-19T04:44:35;34.47;;;25.15;;
30707;SDS011;17458;48.958;8.284;2022-08-19T04:47:20;33.25;;;26.13;;
30707;SDS011;17458;48.958;8.284;2022-08-19T04:50:05;33.35;;;25.27;;
30707;SDS011;17458;48.958;8.284;2022-08-19T04:52:50;29.30;;;25.05;;
30707;SDS011;17458;48.958;8.284;2022-08-19T04:55:37;30.38;;;24.63;;
30707;SDS011;17458;48.958;8.284;2022-08-19T04:58:23;30.50;;;25.25;;
30707;SDS011;17458;48.958;8.284;2022-08-19T05:01:11;31.48;;;24.50;;
30707;SDS011;17458;48.958;8.284;2022-08-19T05:03:57;30.58;;;24.17;;
30707;SDS011;17458;48.958;8.284;2022-08-19T05:06:41;29.58;;;24.10;;
30707;SDS011;17458;48.958;8.284;2022-08-19T05:09:25;29.67;;;23.75;;
30707;SDS011;17458;48.958;8.284;2022-08-19T05:12:12;38.47;;;24.58;;
30707;SDS011;17458;48.958;8.284;2022-08-19T05:14:57;33.08;;;24.20;;
30707;SDS011;17458;48.958;8.284;2022-08-19T05:17:41;32.45;;;23.67;;
30707;SDS011;17458;48.958;8.284;2022-08-19T05:20:45;27.52;;;23.38;;
30707;SDS011;17458;48.958;8.284;2022-08-19T05:23:48;28.17;;;23.08;;
30707;SDS011;17458;48.958;8.284;2022-08-19T05:26:33;26.25;;;21.88;;
30707;SDS011;17458;48.958;8.284;2022-08-19T05:29:18;27.25;;;22.17;;
30707;SDS011;17458;48.958;8.284;2022-08-19T05:32:04;30.85;;;22.98;;
30707;SDS011;17458;48.958;8.284;2022-08-19T05:34:52;25.38;;;21.00;;
30707;SDS011;17458;48.958;8.284;2022-08-19T05:37:37;26.52;;;20.52;;
30707;SDS011;17458;48.958;8.284;2022-08-19T05:40:23;28.05;;;21.80;;
30707;SDS011;17458;48.958;8.284;2022-08-19T05:43:07;29.15;;;21.45;;
30707;SDS011;17458;48.958;8.284;2022-08-19T05:45:52;27.33;;;22.17;;
30707;SDS011;17458;48.958;8.284;2022-08-19T05:48:36;25.13;;;21.42;;
30707;SDS011;17458;48.958;8.284;2022-08-19T05:51:20;24.02;;;20.35;;
30707;SDS011;17458;48.958;8.284;2022-08-19T05:54:05;27.73;;;21.55;;
30707;SDS011;17458;48.958;8.284;2022-08-19T05:56:51;24.63;;;19.73;;
30707;SDS011;17458;48.958;8.284;2022-08-19T05:59:36;28.15;;;21.30;;
30707;SDS011;17458;48.958;8.284;2022-08-19T06:02:20;31.77;;;23.63;;
30707;SDS011;17458;48.958;8.284;2022-08-19T06:05:04;29.58;;;20.63;;
30707;SDS011;17458;48.958;8.284;2022-08-19T06:07:56;24.50;;;20.38;;
30707;SDS011;17458;48.958;8.284;2022-08-19T06:10:40;24.52;;;19.90;;
30707;SDS011;17458;48.958;8.284;2022-08-19T06:13:24;23.63;;;18.83;;
30707;SDS011;17458;48.958;8.284;2022-08-19T06:16:09;25.55;;;20.77;;
30707;SDS011;17458;48.958;8.284;2022-08-19T06:18:53;30.52;;;20.00;;
30707;SDS011;17458;48.958;8.284;2022-08-19T06:21:40;26.67;;;19.15;;
30707;SDS011;17458;48.958;8.284;2022-08-19T06:24:26;23.58;;;20.40;;
30707;SDS011;17458;48.958;8.284;2022-08-19T06:27:12;24.83;;;20.98;;
30707;SDS011;17458;48.958;8.284;2022-08-19T06:29:56;22.92;;;20.00;;
30707;SDS011;17458;48.958;8.284;2022-08-19T06:32:40;29.23;;;20.58;;
30707;SDS011;17458;48.958;8.284;2022-08-19T06:35:24;31.67;;;19.27;;
30707;SDS011;17458;48.958;8.284;2022-08-19T06:38:09;23.05;;;18.48;;
30707;SDS011;17458;48.958;8.284;2022-08-19T06:41:03;22.67;;;18.73;;
30707;SDS011;17458;48.958;8.284;2022-08-19T06:43:48;23.73;;;18.92;;
30707;SDS011;17458;48.958;8.284;2022-08-19T06:46:32;28.50;;;18.63;;
30707;SDS011;17458;48.958;8.284;2022-08-19T06:49:17;23.52;;;18.45;;
30707;SDS011;17458;48.958;8.284;2022-08-19T06:52:00;22.67;;;19.63;;
30707;SDS011;17458;48.958;8.284;2022-08-19T06:54:45;23.67;;;18.00;;
30707;SDS011;17458;48.958;8.284;2022-08-19T06:57:29;21.38;;;17.30;;
30707;SDS011;17458;48.958;8.284;2022-08-19T07:00:14;20.58;;;17.17;;
30707;SDS011;17458;48.958;8.284;2022-08-19T07:02:59;21.10;;;17.33;;
30707;SDS011;17458;48.958;8.284;2022-08-19T07:05:44;23.98;;;18.65;;
30707;SDS011;17458;48.958;8.284;2022-08-19T07:08:28;23.27;;;17.27;;
30707;SDS011;17458;48.958;8.284;2022-08-19T07:11:12;18.25;;;15.93;;
30707;SDS011;17458;48.958;8.284;2022-08-19T07:14:01;22.85;;;17.35;;
30707;SDS011;17458;48.958;8.284;2022-08-19T07:16:46;19.00;;;16.10;;
30707;SDS011;17458;48.958;8.284;2022-08-19T07:19:32;20.05;;;16.10;;
30707;SDS011;17458;48.958;8.284;2022-08-19T07:22:17;18.63;;;16.55;;
30707;SDS011;17458;48.958;8.284;2022-08-19T07:25:01;23.00;;;16.15;;
30707;SDS011;17458;48.958;8.284;2022-08-19T07:27:50;21.60;;;16.55;;
30707;SDS011;17458;48.958;8.284;2022-08-19T07:30:35;21.85;;;16.40;;
30707;SDS011;17458;48.958;8.284;2022-08-19T07:33:20;20.80;;;16.35;;
30707;SDS011;17458;48.958;8.284;2022-08-19T07:36:05;28.25;;;16.02;;
30707;SDS011;17458;48.958;8.284;2022-08-19T07:38:51;19.05;;;15.73;;
30707;SDS011;17458;48.958;8.284;2022-08-19T07:41:38;26.65;;;16.05;;
30707;SDS011;17458;48.958;8.284;2022-08-19T07:44:23;23.77;;;15.93;;
30707;SDS011;17458;48.958;8.284;2022-08-19T07:47:07;16.50;;;14.80;;
30707;SDS011;17458;48.958;8.284;2022-08-19T07:49:51;18.98;;;14.00;;
30707;SDS011;17458;48.958;8.284;2022-08-19T07:52:36;19.50;;;13.70;;
30707;SDS011;17458;48.958;8.284;2022-08-19T07:55:23;19.27;;;14.13;;
30707;SDS011;17458;48.958;8.284;2022-08-19T07:58:10;21.10;;;13.63;;
30707;SDS011;17458;48.958;8.284;2022-08-19T08:00:57;14.25;;;11.68;;
30707;SDS011;17458;48.958;8.284;2022-08-19T08:03:41;18.00;;;11.98;;
30707;SDS011;17458;48.958;8.284;2022-08-19T08:06:46;19.23;;;13.20;;
30707;SDS011;17458;48.958;8.284;2022-08-19T08:09:49;15.93;;;12.35;;
30707;SDS011;17458;48.958;8.284;2022-08-19T08:12:35;15.77;;;12.27;;
30707;SDS011;17458;48.958;8.284;2022-08-19T08:15:23;13.40;;;11.73;;
30707;SDS011;17458;48.958;8.284;2022-08-19T08:18:07;13.77;;;12.35;;
30707;SDS011;17458;48.958;8.284;2022-08-19T08:20:51;14.55;;;11.32;;
30707;SDS011;17458;48.958;8.284;2022-08-19T08:23:35;16.73;;;12.27;;
30707;SDS011;17458;48.958;8.284;2022-08-19T08:26:19;13.25;;;11.98;;
30707;SDS011;17458;48.958;8.284;2022-08-19T08:29:03;14.27;;;11.13;;
30707;SDS011;17458;48.958;8.284;2022-08-19T08:31:48;15.73;;;10.98;;
30707;SDS011;17458;48.958;8.284;2022-08-19T08:34:32;16.08;;;11.43;;
30707;SDS011;17458;48.958;8.284;2022-08-19T08:37:15;13.07;;;11.15;;
30707;SDS011;17458;48.958;8.284;2022-08-19T08:40:03;13.63;;;11.32;;
30707;SDS011;17458;48.958;8.284;2022-08-19T08:43:34;17.05;;;11.70;;
30707;SDS011;17458;48.958;8.284;2022-08-19T08:46:06;12.90;;;10.02;;
30707;SDS011;17458;48.958;8.284;2022-08-19T08:48:56;16.65;;;10.85;;
30707;SDS011;17458;48.958;8.284;2022-08-19T08:51:48;11.35;;;10.15;;
30707;SDS011;17458;48.958;8.284;2022-08-19T08:54:41;13.18;;;9.20;;
30707;SDS011;17458;48.958;8.284;2022-08-19T08:57:35;13.30;;;9.35;;
30707;SDS011;17458;48.958;8.284;2022-08-19T09:00:47;17.75;;;8.95;;
30707;SDS011;17458;48.958;8.284;2022-08-19T09:03:33;12.05;;;8.18;;
30707;SDS011;17458;48.958;8.284;2022-08-19T09:07:19;9.43;;;7.25;;
30707;SDS011;17458;48.958;8.284;2022-08-19T09:12:36;9.63;;;7.07;;
30707;SDS011;17458;48.958;8.284;2022-08-19T09:15:39;11.45;;;8.07;;
30707;SDS011;17458;48.958;8.284;2022-08-19T09:18:48;11.30;;;7.38;;
30707;SDS011;17458;48.958;8.284;2022-08-19T09:21:36;12.30;;;7.68;;
30707;SDS011;17458;48.958;8.284;2022-08-19T09:24:22;8.02;;;7.15;;
30707;SDS011;17458;48.958;8.284;2022-08-19T09:27:06;11.35;;;8.27;;
30707;SDS011;17458;48.958;8.284;2022-08-19T09:29:50;14.88;;;7.68;;
30707;SDS011;17458;48.958;8.284;2022-08-19T09:32:35;10.65;;;6.50;;
30707;SDS011;17458;48.958;8.284;2022-08-19T09:35:20;7.70;;;6.93;;
30707;SDS011;17458;48.958;8.284;2022-08-19T09:38:06;8.48;;;6.30;;
30707;SDS011;17458;48.958;8.284;2022-08-19T09:40:50;9.88;;;7.55;;
30707;SDS011;17458;48.958;8.284;2022-08-19T09:43:34;7.57;;;6.32;;
30707;SDS011;17458;48.958;8.284;2022-08-19T09:46:20;11.90;;;6.38;;
30707;SDS011;17458;48.958;8.284;2022-08-19T09:49:07;10.63;;;5.78;;
30707;SDS011;17458;48.958;8.284;2022-08-19T09:51:51;10.07;;;6.57;;
30707;SDS011;17458;48.958;8.284;2022-08-19T09:54:39;6.95;;;5.82;;
30707;SDS011;17458;48.958;8.284;2022-08-19T09:57:23;10.50;;;6.93;;
30707;SDS011;17458;48.958;8.284;2022-08-19T10:00:07;6.75;;;5.55;;
30707;SDS011;17458;48.958;8.284;2022-08-19T10:02:52;7.70;;;5.38;;
30707;SDS011;17458;48.958;8.284;2022-08-19T10:05:36;12.75;;;6.15;;
30707;SDS011;17458;48.958;8.284;2022-08-19T10:08:34;7.85;;;6.25;;
30707;SDS011;17458;48.958;8.284;2022-08-19T10:11:20;11.55;;;6.20;;
30707;SDS011;17458;48.958;8.284;2022-08-19T10:14:05;9.20;;;6.47;;
30707;SDS011;17458;48.958;8.284;2022-08-19T10:16:49;6.90;;;5.68;;
30707;SDS011;17458;48.958;8.284;2022-08-19T10:19:34;7.68;;;5.78;;
30707;SDS011;17458;48.958;8.284;2022-08-19T10:22:19;8.02;;;6.38;;
30707;SDS011;17458;48.958;8.284;2022-08-19T10:25:04;13.82;;;6.68;;
30707;SDS011;17458;48.958;8.284;2022-08-19T10:27:49;9.70;;;5.78;;
30707;SDS011;17458;48.958;8.284;2022-08-19T10:30:35;7.22;;;5.40;;
30707;SDS011;17458;48.958;8.284;2022-08-19T10:33:19;7.10;;;6.32;;
30707;SDS011;17458;48.958;8.284;2022-08-19T10:36:04;7.00;;;6.30;;
30707;SDS011;17458;48.958;8.284;2022-08-19T10:38:52;6.50;;;5.45;;
30707;SDS011;17458;48.958;8.284;2022-08-19T10:41:38;11.82;;;6.03;;
30707;SDS011;17458;48.958;8.284;2022-08-19T10:44:23;6.18;;;5.53;;
30707;SDS011;17458;48.958;8.284;2022-08-19T10:47:07;10.30;;;6.47;;
30707;SDS011;17458;48.958;8.284;2022-08-19T10:49:52;9.23;;;6.32;;
30707;SDS011;17458;48.958;8.284;2022-08-19T10:52:56;6.80;;;5.38;;
30707;SDS011;17458;48.958;8.284;2022-08-19T10:55:40;9.98;;;5.57;;
30707;SDS011;17458;48.958;8.284;2022-08-19T10:58:43;9.70;;;5.68;;
30707;SDS011;17458;48.958;8.284;2022-08-19T11:01:28;11.45;;;6.50;;
30707;SDS011;17458;48.958;8.284;2022-08-19T11:04:14;13.60;;;5.00;;
30707;SDS011;17458;48.958;8.284;2022-08-19T11:07:01;8.27;;;5.80;;
30707;SDS011;17458;48.958;8.284;2022-08-19T11:09:46;8.98;;;6.18;;
30707;SDS011;17458;48.958;8.284;2022-08-19T11:12:30;8.23;;;5.80;;
30707;SDS011;17458;48.958;8.284;2022-08-19T11:15:15;6.05;;;5.38;;
30707;SDS011;17458;48.958;8.284;2022-08-19T11:18:02;6.07;;;5.47;;
30707;SDS011;17458;48.958;8.284;2022-08-19T11:20:47;8.63;;;5.60;;
30707;SDS011;17458;48.958;8.284;2022-08-19T11:23:31;6.65;;;4.97;;
30707;SDS011;17458;48.958;8.284;2022-08-19T11:26:15;8.25;;;5.03;;
30707;SDS011;17458;48.958;8.284;2022-08-19T11:29:00;6.65;;;6.05;;
30707;SDS011;17458;48.958;8.284;2022-08-19T11:31:47;7.20;;;5.85;;
30707;SDS011;17458;48.958;8.284;2022-08-19T11:34:33;7.68;;;5.70;;
30707;SDS011;17458;48.958;8.284;2022-08-19T11:37:19;6.95;;;5.75;;
30707;SDS011;17458;48.958;8.284;2022-08-19T11:40:04;6.97;;;5.05;;
30707;SDS011;17458;48.958;8.284;2022-08-19T11:42:49;8.32;;;5.30;;
30707;SDS011;17458;48.958;8.284;2022-08-19T11:45:39;6.50;;;5.15;;
30707;SDS011;17458;48.958;8.284;2022-08-19T11:48:24;8.00;;;6.05;;
30707;SDS011;17458;48.958;8.284;2022-08-19T11:51:10;7.90;;;6.55;;
30707;SDS011;17458;48.958;8.284;2022-08-19T11:53:58;17.02;;;5.93;;
30707;SDS011;17458;48.958;8.284;2022-08-19T11:56:42;12.50;;;6.47;;
30707;SDS011;17458;48.958;8.284;2022-08-19T11:59:27;7.78;;;6.90;;
30707;SDS011;17458;48.958;8.284;2022-08-19T12:02:12;9.23;;;6.40;;
30707;SDS011;17458;48.958;8.284;2022-08-19T12:04:59;12.45;;;6.72;;
30707;SDS011;17458;48.958;8.284;2022-08-19T12:07:46;7.63;;;6.30;;
30707;SDS011;17458;48.958;8.284;2022-08-19T12:10:30;7.53;;;6.20;;
30707;SDS011;17458;48.958;8.284;2022-08-19T12:13:14;7.65;;;5.60;;
30707;SDS011;17458;48.958;8.284;2022-08-19T12:16:13;6.47;;;5.82;;
30707;SDS011;17458;48.958;8.284;2022-08-19T12:18:59;9.57;;;5.63;;
30707;SDS011;17458;48.958;8.284;2022-08-19T12:21:47;11.00;;;6.30;;
30707;SDS011;17458;48.958;8.284;2022-08-19T12:24:31;6.35;;;5.30;;
30707;SDS011;17458;48.958;8.284;2022-08-19T12:27:16;11.43;;;5.60;;
30707;SDS011;17458;48.958;8.284;2022-08-19T12:30:02;7.00;;;5.18;;
30707;SDS011;17458;48.958;8.284;2022-08-19T12:32:47;7.25;;;5.57;;
30707;SDS011;17458;48.958;8.284;2022-08-19T12:35:31;6.10;;;5.25;;
30707;SDS011;17458;48.958;8.284;2022-08-19T12:38:16;11.40;;;5.20;;
30707;SDS011;17458;48.958;8.284;2022-08-19T12:41:00;11.65;;;4.78;;
30707;SDS011;17458;48.958;8.284;2022-08-19T12:43:49;11.35;;;5.30;;
30707;SDS011;17458;48.958;8.284;2022-08-19T12:46:33;6.68;;;5.43;;
30707;SDS011;17458;48.958;8.284;2022-08-19T12:49:17;7.57;;;4.70;;
30707;SDS011;17458;48.958;8.284;2022-08-19T12:52:01;4.05;;;3.65;;
30707;SDS011;17458;48.958;8.284;2022-08-19T12:54:47;9.15;;;4.18;;
30707;SDS011;17458;48.958;8.284;2022-08-19T12:57:31;6.47;;;4.72;;
30707;SDS011;17458;48.958;8.284;2022-08-19T13:00:19;9.13;;;4.85;;
30707;SDS011;17458;48.958;8.284;2022-08-19T13:03:05;5.57;;;4.65;;
30707;SDS011;17458;48.958;8.284;2022-08-19T13:05:50;11.25;;;4.40;;
30707;SDS011;17458;48.958;8.284;2022-08-19T13:08:34;8.85;;;3.65;;
30707;SDS011;17458;48.958;8.284;2022-08-19T13:11:19;7.18;;;4.30;;
30707;SDS011;17458;48.958;8.284;2022-08-19T13:14:04;3.45;;;3.15;;
30707;SDS011;17458;48.958;8.284;2022-08-19T13:16:49;7.72;;;3.47;;
30707;SDS011;17458;48.958;8.284;2022-08-19T13:19:32;5.72;;;3.45;;
30707;SDS011;17458;48.958;8.284;2022-08-19T13:22:20;4.53;;;2.83;;
30707;SDS011;17458;48.958;8.284;2022-08-19T13:25:05;4.60;;;2.72;;
30707;SDS011;17458;48.958;8.284;2022-08-19T13:27:50;3.00;;;2.78;;
30707;SDS011;17458;48.958;8.284;2022-08-19T13:30:34;4.55;;;3.10;;
30707;SDS011;17458;48.958;8.284;2022-08-19T13:33:37;4.47;;;3.08;;
30707;SDS011;17458;48.958;8.284;2022-08-19T13:36:21;2.63;;;2.42;;
30707;SDS011;17458;48.958;8.284;2022-08-19T13:39:06;3.42;;;2.80;;
30707;SDS011;17458;48.958;8.284;2022-08-19T13:41:54;4.00;;;2.90;;
30707;SDS011;17458;48.958;8.284;2022-08-19T13:44:38;7.55;;;2.65;;
30707;SDS011;17458;48.958;8.284;2022-08-19T13:47:22;3.80;;;3.05;;
30707;SDS011;17458;48.958;8.284;2022-08-19T13:50:06;9.27;;;3.05;;
30707;SDS011;17458;48.958;8.284;2022-08-19T13:52:50;3.47;;;2.95;;
30707;SDS011;17458;48.958;8.284;2022-08-19T13:55:37;4.22;;;3.00;;
30707;SDS011;17458;48.958;8.284;2022-08-19T13:58:22;3.92;;;3.50;;
30707;SDS011;17458;48.958;8.284;2022-08-19T14:01:06;3.92;;;2.75;;
30707;SDS011;17458;48.958;8.284;2022-08-19T14:03:52;3.97;;;3.05;;
30707;SDS011;17458;48.958;8.284;2022-08-19T14:06:36;2.97;;;2.65;;
30707;SDS011;17458;48.958;8.284;2022-08-19T14:09:20;4.30;;;2.80;;
30707;SDS011;17458;48.958;8.284;2022-08-19T14:12:04;4.28;;;2.60;;
30707;SDS011;17458;48.958;8.284;2022-08-19T14:14:48;10.00;;;3.25;;
30707;SDS011;17458;48.958;8.284;2022-08-19T14:17:32;4.13;;;3.28;;
30707;SDS011;17458;48.958;8.284;2022-08-19T14:20:18;4.32;;;2.90;;
30707;SDS011;17458;48.958;8.284;2022-08-19T14:23:02;6.53;;;2.80;;
30707;SDS011;17458;48.958;8.284;2022-08-19T14:25:46;3.28;;;2.42;;
30707;SDS011;17458;48.958;8.284;2022-08-19T14:28:31;7.53;;;4.05;;
30707;SDS011;17458;48.958;8.284;2022-08-19T14:31:16;3.97;;;3.13;;
30707;SDS011;17458;48.958;8.284;2022-08-19T14:34:02;4.00;;;3.58;;
30707;SDS011;17458;48.958;8.284;2022-08-19T14:36:46;12.13;;;3.45;;
30707;SDS011;17458;48.958;8.284;2022-08-19T14:39:30;3.70;;;3.40;;
30707;SDS011;17458;48.958;8.284;2022-08-19T14:42:14;10.35;;;3.70;;
30707;SDS011;17458;48.958;8.284;2022-08-19T14:44:58;7.20;;;3.40;;
30707;SDS011;17458;48.958;8.284;2022-08-19T14:47:43;4.95;;;4.45;;
30707;SDS011;17458;48.958;8.284;2022-08-19T14:50:27;4.68;;;3.83;;
30707;SDS011;17458;48.958;8.284;2022-08-19T14:53:12;4.07;;;3.50;;
30707;SDS011;17458;48.958;8.284;2022-08-19T14:55:56;4.32;;;3.90;;
30707;SDS011;17458;48.958;8.284;2022-08-19T14:58:41;7.50;;;4.18;;
30707;SDS011;17458;48.958;8.284;2022-08-19T15:01:26;8.55;;;3.88;;
30707;SDS011;17458;48.958;8.284;2022-08-19T15:04:11;4.43;;;3.67;;
30707;SDS011;17458;48.958;8.284;2022-08-19T15:06:55;6.60;;;4.45;;
30707;SDS011;17458;48.958;8.284;2022-08-19T15:09:39;4.30;;;3.65;;
30707;SDS011;17458;48.958;8.284;2022-08-19T15:12:23;4.60;;;3.83;;
30707;SDS011;17458;48.958;8.284;2022-08-19T15:15:09;8.00;;;3.53;;
30707;SDS011;17458;48.958;8.284;2022-08-19T15:17:56;6.30;;;3.50;;
30707;SDS011;17458;48.958;8.284;2022-08-19T15:20:46;3.97;;;2.78;;
30707;SDS011;17458;48.958;8.284;2022-08-19T15:23:31;4.80;;;3.28;;
30707;SDS011;17458;48.958;8.284;2022-08-19T15:26:16;5.72;;;2.58;;
30707;SDS011;17458;48.958;8.284;2022-08-19T15:29:02;2.58;;;2.38;;
30707;SDS011;17458;48.958;8.284;2022-08-19T15:31:47;3.50;;;2.83;;
30707;SDS011;17458;48.958;8.284;2022-08-19T15:34:32;7.10;;;2.65;;
30707;SDS011;17458;48.958;8.284;2022-08-19T15:37:16;3.08;;;2.67;;
30707;SDS011;17458;48.958;8.284;2022-08-19T15:40:00;3.78;;;2.70;;
30707;SDS011;17458;48.958;8.284;2022-08-19T15:42:45;3.85;;;2.97;;
30707;SDS011;17458;48.958;8.284;2022-08-19T15:45:29;3.83;;;2.58;;
30707;SDS011;17458;48.958;8.284;2022-08-19T15:48:17;4.97;;;3.60;;
30707;SDS011;17458;48.958;8.284;2022-08-19T15:51:01;5.32;;;3.22;;
30707;SDS011;17458;48.958;8.284;2022-08-19T15:53:45;5.43;;;3.42;;
30707;SDS011;17458;48.958;8.284;2022-08-19T15:56:30;4.80;;;3.00;;
30707;SDS011;17458;48.958;8.284;2022-08-19T15:59:49;4.82;;;2.70;;
30707;SDS011;17458;48.958;8.284;2022-08-19T16:02:51;6.75;;;3.63;;
30707;SDS011;17458;48.958;8.284;2022-08-19T16:05:54;8.38;;;3.40;;
30707;SDS011;17458;48.958;8.284;2022-08-19T16:08:58;7.57;;;4.30;;
30707;SDS011;17458;48.958;8.284;2022-08-19T16:11:44;3.78;;;3.13;;
30707;SDS011;17458;48.958;8.284;2022-08-19T16:14:31;4.03;;;3.20;;
30707;SDS011;17458;48.958;8.284;2022-08-19T16:17:16;13.70;;;3.47;;
30707;SDS011;17458;48.958;8.284;2022-08-19T16:20:01;5.13;;;2.97;;
30707;SDS011;17458;48.958;8.284;2022-08-19T16:22:51;6.90;;;3.33;;
30707;SDS011;17458;48.958;8.284;2022-08-19T16:25:36;7.53;;;4.55;;
30707;SDS011;17458;48.958;8.284;2022-08-19T16:28:20;11.82;;;5.88;;
30707;SDS011;17458;48.958;8.284;2022-08-19T16:31:05;14.77;;;7.10;;
30707;SDS011;17458;48.958;8.284;2022-08-19T16:33:50;13.73;;;6.00;;